Island Lookout — WDF6311 — position and weather

sailwx.info

Track history (hours):
 
Tides and Currents Weather Stations Pressure Air Temp Water Temp Dewpoint Dewpoint Depression Visibility Wind Speed Wind Dir Waves Ship Positions

Island Lookout

Owner: Stevens Towing Company Inc., Yonges Island, SC. More information available from US FCC via Universal Licensing System and Coast Guard Vessel Documentation Center.

Last reported at 2016-May-01 16:16 UTC. Time now 2016-May-02 08:16 UTC.
Position N 36°43' W 076°15'.

Length 22 m; draft 2.9 m.

Type: Towing. MMSI: 367472930.

Date/timePositionNaut miles runAvg speedWind from/ knotsBaromVisibWave heightAir tempDewpointWater temp
2016-May-01 16:16N 36°43' W 076°15'0 0.0
2016-May-01 15:04N 36°43' W 076°15'0 0.0
2016-Apr-30 21:24N 36°43' W 076°15'1 1.3
2016-Apr-30 20:30N 36°44' W 076°16'4 3.9
2016-Apr-30 19:33N 36°47' W 076°18'6 5.8
2016-Apr-30 18:31N 36°53' W 076°20'127 6.4
2016-Apr-29 22:32N 39°00' W 076°23'9 7.0
2016-Apr-29 21:17N 39°09' W 076°25'5 6.3
2016-Apr-29 20:34N 39°12' W 076°29'4 4.4
2016-Apr-29 19:34N 39°12' W 076°35'0 0.1
2016-Apr-29 18:34N 39°12' W 076°35'0 0.3
2016-Apr-29 17:33N 39°13' W 076°35'0 0.0
2016-Apr-29 16:33N 39°13' W 076°35'0 0.3
2016-Apr-29 15:33N 39°12' W 076°35'0 0.0
2016-Apr-29 14:33N 39°12' W 076°35'1 1.0
2016-Apr-29 13:04N 39°14' W 076°34'1 1.8
2016-Apr-29 12:33N 39°13' W 076°35'1 0.5
2016-Apr-29 11:31N 39°12' W 076°35'0 0.0
2016-Apr-29 10:34N 39°12' W 076°35'0 0.0
2016-Apr-29 09:33N 39°12' W 076°35'0 0.0
2016-Apr-29 08:34N 39°12' W 076°35'0 0.0
2016-Apr-29 07:34N 39°12' W 076°35'0 0.0
2016-Apr-29 06:33N 39°12' W 076°35'0 0.0
2016-Apr-29 05:33N 39°12' W 076°35'0 0.0
2016-Apr-29 04:33N 39°12' W 076°35'0 0.0
2016-Apr-29 03:33N 39°12' W 076°35'0 0.0
2016-Apr-29 02:34N 39°12' W 076°35'0 0.0
2016-Apr-29 01:33N 39°12' W 076°35'0 0.0
2016-Apr-29 00:33N 39°12' W 076°35'0 0.0
2016-Apr-28 23:33N 39°12' W 076°35'0 0.0
2016-Apr-28 22:33N 39°12' W 076°35'0 0.0
2016-Apr-28 21:33N 39°12' W 076°35'0 0.0
2016-Apr-28 20:33N 39°12' W 076°35'0 0.0
2016-Apr-28 19:33N 39°12' W 076°35'0 0.0
2016-Apr-28 18:34N 39°12' W 076°35'0 0.0
2016-Apr-28 17:33N 39°12' W 076°35'2 1.6
2016-Apr-28 16:33N 39°13' W 076°33'7 6.9
2016-Apr-28 15:33N 39°10' W 076°26'7 6.7
2016-Apr-28 14:30N 39°03' W 076°23'7 6.8
2016-Apr-28 13:32N 38°57' W 076°24'14 6.8
2016-Apr-28 11:33N 38°43' W 076°28'7 6.8
2016-Apr-28 10:33N 38°37' W 076°27'104 6.5
2016-Apr-27 18:26N 36°52' W 076°20'5 6.0
2016-Apr-27 17:34N 36°47' W 076°18'4 4.2
2016-Apr-27 16:33N 36°44' W 076°16'1 1.1
2016-Apr-27 15:33N 36°43' W 076°14'7 5.6
2016-Apr-27 14:19N 36°43' W 076°06'  
2016-Apr-23 10:08N 36°43' W 076°14'1 0.1
2016-Apr-22 21:29N 36°43' W 076°15'3 3.7
2016-Apr-22 20:33N 36°46' W 076°18'5 4.4
2016-Apr-22 19:32N 36°50' W 076°18'6 5.7
2016-Apr-22 18:33N 36°56' W 076°20'121 5.7
2016-Apr-21 21:09N 38°57' W 076°24'3 5.4
2016-Apr-21 20:33N 39°00' W 076°23'7 6.1
2016-Apr-21 19:21N 39°07' W 076°24'5 5.9
2016-Apr-21 18:33N 39°11' W 076°28'3 2.6
2016-Apr-21 17:33N 39°13' W 076°30'6 5.8
2016-Apr-21 16:33N 39°17' W 076°36'  
Track history (hours):
 
Tides and Currents Weather Stations Pressure Air Temp Water Temp Dewpoint Dewpoint Depression Visibility Wind Speed Wind Dir Waves Ship Positions

Island Lookout

Owner: Stevens Towing Company Inc., Yonges Island, SC. More information available from US FCC via Universal Licensing System and Coast Guard Vessel Documentation Center.

Last reported at 2016-May-01 16:16 UTC. Time now 2016-May-02 08:16 UTC.
Position N 36°43' W 076°15'.

Length 22 m; draft 2.9 m.

Type: Towing. MMSI: 367472930.

Date/timePositionNaut miles runAvg speedWind from/ knotsBaromVisibWave heightAir tempDewpointWater temp
2016-May-01 16:16N 36°43' W 076°15'0 0.0
2016-May-01 15:04N 36°43' W 076°15'0 0.0
2016-Apr-30 21:24N 36°43' W 076°15'1 1.3
2016-Apr-30 20:30N 36°44' W 076°16'4 3.9
2016-Apr-30 19:33N 36°47' W 076°18'6 5.8
2016-Apr-30 18:31N 36°53' W 076°20'127 6.4
2016-Apr-29 22:32N 39°00' W 076°23'9 7.0
2016-Apr-29 21:17N 39°09' W 076°25'5 6.3
2016-Apr-29 20:34N 39°12' W 076°29'4 4.4
2016-Apr-29 19:34N 39°12' W 076°35'0 0.1
2016-Apr-29 18:34N 39°12' W 076°35'0 0.3
2016-Apr-29 17:33N 39°13' W 076°35'0 0.0
2016-Apr-29 16:33N 39°13' W 076°35'0 0.3
2016-Apr-29 15:33N 39°12' W 076°35'0 0.0
2016-Apr-29 14:33N 39°12' W 076°35'1 1.0
2016-Apr-29 13:04N 39°14' W 076°34'1 1.8
2016-Apr-29 12:33N 39°13' W 076°35'1 0.5
2016-Apr-29 11:31N 39°12' W 076°35'0 0.0
2016-Apr-29 10:34N 39°12' W 076°35'0 0.0
2016-Apr-29 09:33N 39°12' W 076°35'0 0.0
2016-Apr-29 08:34N 39°12' W 076°35'0 0.0
2016-Apr-29 07:34N 39°12' W 076°35'0 0.0
2016-Apr-29 06:33N 39°12' W 076°35'0 0.0
2016-Apr-29 05:33N 39°12' W 076°35'0 0.0
2016-Apr-29 04:33N 39°12' W 076°35'0 0.0
2016-Apr-29 03:33N 39°12' W 076°35'0 0.0
2016-Apr-29 02:34N 39°12' W 076°35'0 0.0
2016-Apr-29 01:33N 39°12' W 076°35'0 0.0
2016-Apr-29 00:33N 39°12' W 076°35'0 0.0
2016-Apr-28 23:33N 39°12' W 076°35'0 0.0
2016-Apr-28 22:33N 39°12' W 076°35'0 0.0
2016-Apr-28 21:33N 39°12' W 076°35'0 0.0
2016-Apr-28 20:33N 39°12' W 076°35'0 0.0
2016-Apr-28 19:33N 39°12' W 076°35'0 0.0
2016-Apr-28 18:34N 39°12' W 076°35'0 0.0
2016-Apr-28 17:33N 39°12' W 076°35'2 1.6
2016-Apr-28 16:33N 39°13' W 076°33'7 6.9
2016-Apr-28 15:33N 39°10' W 076°26'7 6.7
2016-Apr-28 14:30N 39°03' W 076°23'7 6.8
2016-Apr-28 13:32N 38°57' W 076°24'14 6.8
2016-Apr-28 11:33N 38°43' W 076°28'7 6.8
2016-Apr-28 10:33N 38°37' W 076°27'104 6.5
2016-Apr-27 18:26N 36°52' W 076°20'5 6.0
2016-Apr-27 17:34N 36°47' W 076°18'4 4.2
2016-Apr-27 16:33N 36°44' W 076°16'1 1.1
2016-Apr-27 15:33N 36°43' W 076°14'7 5.6
2016-Apr-27 14:19N 36°43' W 076°06'  
2016-Apr-23 10:08N 36°43' W 076°14'1 0.1
2016-Apr-22 21:29N 36°43' W 076°15'3 3.7
2016-Apr-22 20:33N 36°46' W 076°18'5 4.4
2016-Apr-22 19:32N 36°50' W 076°18'6 5.7
2016-Apr-22 18:33N 36°56' W 076°20'121 5.7
2016-Apr-21 21:09N 38°57' W 076°24'3 5.4
2016-Apr-21 20:33N 39°00' W 076°23'7 6.1
2016-Apr-21 19:21N 39°07' W 076°24'5 5.9
2016-Apr-21 18:33N 39°11' W 076°28'3 2.6
2016-Apr-21 17:33N 39°13' W 076°30'6 5.8
2016-Apr-21 16:33N 39°17' W 076°36'  

Dump ship's entire track history